createdAt,value
2018-01-24T00:00:34.371Z,0
2018-01-24T00:01:39.558Z,0
2018-01-24T00:02:44.745Z,0
2018-01-24T00:03:50.647Z,0
2018-01-24T00:04:55.578Z,0
2018-01-24T00:06:00.773Z,0
2018-01-24T00:07:06.308Z,0
2018-01-24T00:08:11.213Z,0
2018-01-24T00:09:16.404Z,0
2018-01-24T00:10:22.153Z,0
2018-01-24T00:11:27.625Z,0
2018-01-24T00:12:33.176Z,0
2018-01-24T00:13:38.677Z,0
2018-01-24T00:14:44.165Z,0
2018-01-24T00:15:49.996Z,0
2018-01-24T00:16:55.492Z,0
2018-01-24T00:18:00.413Z,0
2018-01-24T00:19:05.487Z,0
2018-01-24T00:20:10.089Z,0
2018-01-24T00:21:15.319Z,0
2018-01-24T00:22:21.054Z,0
2018-01-24T00:23:26.223Z,0
2018-01-24T00:24:31.681Z,0
2018-01-24T00:25:37.152Z,0
2018-01-24T00:26:42.616Z,0
2018-01-24T00:27:48.336Z,0
2018-01-24T00:28:53.787Z,0
2018-01-24T00:29:59.293Z,0
2018-01-24T00:31:04.565Z,0
2018-01-24T00:32:09.174Z,0
2018-01-24T00:33:14.627Z,0
2018-01-24T00:34:20.357Z,0
2018-01-24T00:35:25.831Z,0
2018-01-24T00:36:31.535Z,0
2018-01-24T00:37:36.466Z,0
2018-01-24T00:38:41.686Z,0
2018-01-24T00:39:47.002Z,0
2018-01-24T00:40:52.480Z,0
2018-01-24T00:41:57.953Z,0
2018-01-24T00:43:03.592Z,0
2018-01-24T00:44:08.204Z,0
2018-01-24T00:45:13.106Z,0
2018-01-24T00:46:18.840Z,0
2018-01-24T00:47:24.324Z,0
2018-01-24T00:48:30.296Z,0
2018-01-24T00:49:35.769Z,0
2018-01-24T00:50:40.972Z,0
2018-01-24T00:51:46.678Z,0
2018-01-24T00:52:51.870Z,0
2018-01-24T00:53:56.778Z,0
2018-01-24T00:55:01.855Z,0
2018-01-24T00:56:07.035Z,0
2018-01-24T00:57:11.640Z,0
2018-01-24T00:58:17.457Z,0
2018-01-24T00:59:22.942Z,0
2018-01-24T01:00:28.885Z,0
2018-01-24T01:01:34.351Z,0
2018-01-24T01:02:39.548Z,0
2018-01-24T01:03:45.275Z,0
2018-01-24T01:04:50.743Z,0
2018-01-24T01:05:56.223Z,0
2018-01-24T01:07:01.486Z,0
2018-01-24T01:08:06.405Z,0
2018-01-24T01:09:11.897Z,0
2018-01-24T01:10:16.778Z,0
2018-01-24T01:11:22.249Z,0
2018-01-24T01:12:28.020Z,0
2018-01-24T01:13:33.187Z,0
2018-01-24T01:14:38.102Z,0
2018-01-24T01:15:43.712Z,0
2018-01-24T01:16:49.176Z,0
2018-01-24T01:17:54.071Z,0
2018-01-24T01:18:59.606Z,0
2018-01-24T01:20:05.071Z,0
2018-01-24T01:21:10.276Z,0
2018-01-24T01:22:15.790Z,0
2018-01-24T01:23:21.263Z,0
2018-01-24T01:24:27.144Z,0
2018-01-24T01:25:32.080Z,0
2018-01-24T01:26:37.258Z,0
2018-01-24T01:27:43.177Z,0
2018-01-24T01:28:48.356Z,0
2018-01-24T01:29:53.842Z,0
2018-01-24T01:30:59.061Z,0
2018-01-24T01:32:04.243Z,0
2018-01-24T01:33:09.433Z,0
2018-01-24T01:34:15.173Z,0
2018-01-24T01:35:20.630Z,0
2018-01-24T01:36:40.698Z,0
2018-01-24T01:37:45.869Z,0
2018-01-24T01:38:51.050Z,0
2018-01-24T01:39:56.827Z,0
2018-01-24T01:41:02.007Z,0
2018-01-24T01:42:06.373Z,0
2018-01-24T01:43:12.112Z,0
2018-01-24T01:44:17.603Z,0
2018-01-24T01:45:22.790Z,0
2018-01-24T01:46:28.869Z,0
2018-01-24T01:47:34.340Z,0
2018-01-24T01:48:40.086Z,0
2018-01-24T01:49:45.566Z,0
2018-01-24T01:50:51.043Z,0
2018-01-24T01:51:56.515Z,0
2018-01-24T01:53:00.859Z,0
2018-01-24T01:54:05.210Z,0
2018-01-24T01:55:10.377Z,0
2018-01-24T01:56:15.829Z,0
2018-01-24T01:57:20.717Z,0
2018-01-24T01:58:26.341Z,0
2018-01-24T01:59:31.795Z,0
2018-01-24T02:00:37.261Z,0
2018-01-24T02:01:42.714Z,0
2018-01-24T02:02:48.202Z,0
2018-01-24T02:03:53.641Z,0
2018-01-24T02:04:58.254Z,0
2018-01-24T02:06:03.704Z,0
2018-01-24T02:07:09.530Z,0
2018-01-24T02:08:14.996Z,0
2018-01-24T02:09:20.248Z,0
2018-01-24T02:10:25.648Z,0
2018-01-24T02:11:31.096Z,0
2018-01-24T02:12:36.724Z,0
2018-01-24T02:13:41.904Z,0
2018-01-24T02:14:47.370Z,0
2018-01-24T02:15:53.090Z,0
2018-01-24T02:16:58.025Z,0
2018-01-24T02:18:03.481Z,0
2018-01-24T02:19:08.844Z,0
2018-01-24T02:20:14.321Z,0
2018-01-24T02:21:19.781Z,0
2018-01-24T02:22:25.215Z,0
2018-01-24T02:23:30.684Z,0
2018-01-24T02:24:36.603Z,0
2018-01-24T02:25:41.773Z,0
2018-01-24T02:26:47.243Z,0
2018-01-24T02:27:53.074Z,0
2018-01-24T02:28:58.541Z,0
2018-01-24T02:30:03.747Z,0
2018-01-24T02:31:09.225Z,0
2018-01-24T02:32:14.688Z,0
2018-01-24T02:33:20.163Z,0
2018-01-24T02:34:25.652Z,0
2018-01-24T02:35:30.287Z,0
2018-01-24T02:36:35.970Z,0
2018-01-24T02:37:41.416Z,0
2018-01-24T02:38:46.628Z,0
2018-01-24T02:39:52.363Z,0
2018-01-24T02:40:57.532Z,0
2018-01-24T02:42:02.420Z,0
2018-01-24T02:43:08.212Z,0
2018-01-24T02:44:13.140Z,0
2018-01-24T02:45:18.610Z,0
2018-01-24T02:46:24.322Z,0
2018-01-24T02:47:29.812Z,0
2018-01-24T02:48:35.486Z,0
2018-01-24T02:49:40.986Z,0
2018-01-24T02:50:45.892Z,0
2018-01-24T02:51:51.682Z,0
2018-01-24T02:52:57.134Z,0
2018-01-24T02:54:02.062Z,0
2018-01-24T02:55:07.512Z,0
2018-01-24T02:56:12.989Z,0
2018-01-24T02:57:18.439Z,0
2018-01-24T02:58:24.161Z,0
2018-01-24T02:59:29.615Z,0
2018-01-24T03:00:35.624Z,0
2018-01-24T03:01:41.083Z,0
2018-01-24T03:02:46.546Z,0
2018-01-24T03:03:52.386Z,0
2018-01-24T03:04:57.590Z,0
2018-01-24T03:06:03.064Z,0
2018-01-24T03:07:08.394Z,0
2018-01-24T03:08:13.354Z,0
2018-01-24T03:09:18.829Z,0
2018-01-24T03:10:24.351Z,0
2018-01-24T03:11:29.823Z,0
2018-01-24T03:12:35.197Z,0
2018-01-24T03:13:40.123Z,0
2018-01-24T03:14:45.327Z,0
2018-01-24T03:15:51.109Z,0
2018-01-24T03:16:56.554Z,0
2018-01-24T03:18:01.452Z,0
2018-01-24T03:19:06.404Z,0
2018-01-24T03:20:11.861Z,0
2018-01-24T03:21:17.314Z,0
2018-01-24T03:22:22.770Z,0
2018-01-24T03:23:27.987Z,0
2018-01-24T03:24:33.698Z,0
2018-01-24T03:25:39.144Z,0
2018-01-24T03:26:44.616Z,0
2018-01-24T03:27:50.191Z,0
2018-01-24T03:28:55.672Z,0
2018-01-24T03:30:00.837Z,0
2018-01-24T03:31:05.985Z,0
2018-01-24T03:32:11.192Z,0
2018-01-24T03:33:16.656Z,0
2018-01-24T03:34:22.386Z,0
2018-01-24T03:35:27.864Z,0
2018-01-24T03:36:33.594Z,0
2018-01-24T03:37:39.087Z,0
2018-01-24T03:38:44.282Z,0
2018-01-24T03:39:49.251Z,0
2018-01-24T03:40:54.711Z,0
2018-01-24T03:41:59.907Z,0
2018-01-24T03:43:05.358Z,0
2018-01-24T03:44:10.262Z,0
2018-01-24T03:45:15.746Z,0
2018-01-24T03:46:21.212Z,0
2018-01-24T03:47:26.667Z,0
2018-01-24T03:48:32.655Z,0
2018-01-24T03:49:37.817Z,0
2018-01-24T03:50:43.294Z,0
2018-01-24T03:51:48.923Z,0
2018-01-24T03:52:54.102Z,0
2018-01-24T03:53:59.311Z,0
2018-01-24T03:55:05.137Z,0
2018-01-24T03:56:09.778Z,0
2018-01-24T03:57:15.251Z,0
2018-01-24T03:58:20.678Z,0
2018-01-24T03:59:25.293Z,0
2018-01-24T04:00:31.044Z,0
2018-01-24T04:01:36.498Z,0
2018-01-24T04:02:41.700Z,0
2018-01-24T04:03:47.407Z,0
2018-01-24T04:04:52.873Z,0
2018-01-24T04:05:58.343Z,0
2018-01-24T04:07:03.199Z,0
2018-01-24T04:08:08.661Z,0
2018-01-24T04:09:14.100Z,0
2018-01-24T04:10:19.887Z,0
2018-01-24T04:11:25.100Z,0
2018-01-24T04:12:30.766Z,0
2018-01-24T04:13:35.933Z,0
2018-01-24T04:14:41.419Z,0
2018-01-24T04:15:47.158Z,0
2018-01-24T04:16:52.321Z,0
2018-01-24T04:17:57.805Z,0
2018-01-24T04:19:03.268Z,0
2018-01-24T04:20:08.489Z,0
2018-01-24T04:21:14.012Z,0
2018-01-24T04:22:19.320Z,0
2018-01-24T04:23:24.812Z,0
2018-01-24T04:24:30.527Z,0
2018-01-24T04:25:35.426Z,0
2018-01-24T04:26:40.942Z,0
2018-01-24T04:27:46.788Z,0
2018-01-24T04:28:52.256Z,0
2018-01-24T04:29:57.418Z,0
2018-01-24T04:31:02.878Z,0
2018-01-24T04:32:07.474Z,0
2018-01-24T04:33:12.397Z,0
2018-01-24T04:34:17.919Z,0
2018-01-24T04:35:23.100Z,0
2018-01-24T04:36:28.820Z,0
2018-01-24T04:37:34.284Z,0
2018-01-24T04:38:39.770Z,0
2018-01-24T04:39:45.685Z,0
2018-01-24T04:40:50.568Z,0
2018-01-24T04:41:55.471Z,0
2018-01-24T04:43:01.194Z,0
2018-01-24T04:44:06.402Z,0
2018-01-24T04:45:11.854Z,0
2018-01-24T04:46:17.584Z,0
2018-01-24T04:47:22.806Z,0
2018-01-24T04:48:28.425Z,0
2018-01-24T04:49:33.601Z,0
2018-01-24T04:50:39.089Z,0
2018-01-24T04:51:44.802Z,0
2018-01-24T04:52:49.706Z,0
2018-01-24T04:53:55.187Z,0
2018-01-24T04:55:00.832Z,0
2018-01-24T04:56:05.464Z,0
2018-01-24T04:57:10.422Z,0
2018-01-24T04:58:15.851Z,0
2018-01-24T04:59:21.034Z,0
2018-01-24T05:00:41.207Z,0
2018-01-24T05:01:46.439Z,0
2018-01-24T05:02:51.916Z,0
2018-01-24T05:03:57.637Z,0
2018-01-24T05:05:03.135Z,0
2018-01-24T05:06:08.637Z,0
2018-01-24T05:07:14.412Z,0
2018-01-24T05:08:19.596Z,0
2018-01-24T05:09:40.072Z,0
2018-01-24T05:10:45.567Z,0
2018-01-24T05:11:51.042Z,0
2018-01-24T05:12:56.753Z,0
2018-01-24T05:14:01.374Z,0
2018-01-24T05:15:06.310Z,0
2018-01-24T05:16:12.090Z,0
2018-01-24T05:17:17.541Z,0
2018-01-24T05:18:23.002Z,0
2018-01-24T05:19:42.860Z,0
2018-01-24T05:20:48.327Z,0
2018-01-24T05:21:54.098Z,0
2018-01-24T05:22:59.552Z,0
2018-01-24T05:24:04.742Z,0
2018-01-24T05:25:10.447Z,0
2018-01-24T05:26:15.940Z,0
2018-01-24T05:27:21.130Z,0
2018-01-24T05:28:27.198Z,0
2018-01-24T05:29:32.123Z,0
2018-01-24T05:30:37.710Z,0
2018-01-24T05:31:42.641Z,0
2018-01-24T05:32:48.084Z,0
2018-01-24T05:33:53.919Z,0
2018-01-24T05:34:59.104Z,0
2018-01-24T05:36:17.004Z,0
2018-01-24T05:37:22.512Z,0
2018-01-24T05:38:27.996Z,0
2018-01-24T05:39:33.151Z,0
2018-01-24T05:40:38.605Z,0
2018-01-24T05:41:44.110Z,0
2018-01-24T05:42:49.564Z,0
2018-01-24T05:43:54.499Z,0
2018-01-24T05:44:59.664Z,0
2018-01-24T05:46:05.078Z,0
2018-01-24T05:47:10.240Z,0
2018-01-24T05:48:15.691Z,0
2018-01-24T05:49:21.158Z,0
2018-01-24T05:50:26.650Z,0
2018-01-24T05:51:32.156Z,0
2018-01-24T05:52:37.332Z,0
2018-01-24T05:53:42.239Z,0
2018-01-24T05:54:47.945Z,0
2018-01-24T05:55:53.166Z,0
2018-01-24T05:56:58.631Z,0
2018-01-24T05:58:03.536Z,0
2018-01-24T05:59:08.161Z,0
2018-01-24T06:00:13.335Z,0
2018-01-24T06:01:39.060Z,0
2018-01-24T06:02:44.532Z,0
2018-01-24T06:03:50.038Z,0
2018-01-24T06:04:55.516Z,0
2018-01-24T06:06:00.417Z,0
2018-01-24T06:07:06.343Z,0
2018-01-24T06:08:11.820Z,0
2018-01-24T06:09:17.003Z,0
2018-01-24T06:10:22.714Z,0
2018-01-24T06:11:28.179Z,0
2018-01-24T06:12:34.212Z,0
2018-01-24T06:13:39.401Z,0
2018-01-24T06:14:44.867Z,0
2018-01-24T06:15:50.720Z,0
2018-01-24T06:16:55.931Z,0
2018-01-24T06:18:00.276Z,0
2018-01-24T06:19:05.991Z,0
2018-01-24T06:20:11.217Z,0
2018-01-24T06:21:16.097Z,0
2018-01-24T06:22:21.826Z,0
2018-01-24T06:23:27.019Z,0
2018-01-24T06:24:32.795Z,0
2018-01-24T06:25:38.254Z,0
2018-01-24T06:26:43.415Z,0
2018-01-24T06:27:49.161Z,0
2018-01-24T06:28:54.381Z,0
2018-01-24T06:29:59.573Z,0
2018-01-24T06:31:04.696Z,0
2018-01-24T06:32:10.231Z,0
2018-01-24T06:33:15.680Z,0
2018-01-24T06:34:20.965Z,0
2018-01-24T06:35:26.483Z,0
2018-01-24T06:36:32.208Z,0
2018-01-24T06:37:37.684Z,0
2018-01-24T06:38:43.143Z,0
2018-01-24T06:39:47.724Z,0
2018-01-24T06:40:53.184Z,0
2018-01-24T06:41:58.657Z,0
2018-01-24T06:43:04.067Z,0
2018-01-24T06:44:09.573Z,0
2018-01-24T06:45:14.766Z,0
2018-01-24T06:46:19.963Z,0
2018-01-24T06:47:25.447Z,0
2018-01-24T06:48:31.294Z,0
2018-01-24T06:49:36.464Z,0
2018-01-24T06:50:41.658Z,0
2018-01-24T06:51:47.412Z,0
2018-01-24T06:52:52.883Z,0
2018-01-24T06:53:57.814Z,0
2018-01-24T06:55:02.224Z,0
2018-01-24T06:56:08.239Z,0
2018-01-24T06:57:13.434Z,0
2018-01-24T06:58:19.163Z,0
2018-01-24T06:59:24.356Z,0
2018-01-24T07:00:30.138Z,0
2018-01-24T07:01:34.759Z,0
2018-01-24T07:02:39.961Z,0
2018-01-24T07:03:45.759Z,0
2018-01-24T07:04:51.458Z,0
2018-01-24T07:05:56.931Z,0
2018-01-24T07:07:02.643Z,0
2018-01-24T07:08:08.073Z,0
2018-01-24T07:09:12.704Z,0
2018-01-24T07:10:18.798Z,0
2018-01-24T07:11:24.271Z,0
2018-01-24T07:12:30.131Z,0
2018-01-24T07:13:35.604Z,0
2018-01-24T07:14:41.058Z,0
2018-01-24T07:15:46.613Z,0
2018-01-24T07:16:52.079Z,0
2018-01-24T07:17:57.545Z,0
2018-01-24T07:19:02.706Z,0
2018-01-24T07:20:08.052Z,0
2018-01-24T07:21:13.545Z,0
2018-01-24T07:22:19.281Z,0
2018-01-24T07:23:24.494Z,0
2018-01-24T07:24:30.100Z,0
2018-01-24T07:25:35.630Z,0
2018-01-24T07:26:40.838Z,55
2018-01-24T07:27:46.274Z,0
2018-01-24T07:28:51.767Z,0
2018-01-24T07:29:56.957Z,0
2018-01-24T07:31:02.377Z,0
2018-01-24T07:32:07.846Z,55
2018-01-24T07:33:13.007Z,55
2018-01-24T07:34:18.468Z,0
2018-01-24T07:35:23.646Z,0
2018-01-24T07:36:29.318Z,0
2018-01-24T07:37:34.515Z,0
2018-01-24T07:38:39.643Z,0
2018-01-24T07:39:44.932Z,0
2018-01-24T07:40:50.117Z,0
2018-01-24T07:41:55.784Z,0
2018-01-24T07:43:00.948Z,0
2018-01-24T07:44:06.138Z,0
2018-01-24T07:45:11.357Z,0
2018-01-24T07:46:16.501Z,0
2018-01-24T07:47:21.704Z,0
2018-01-24T07:48:27.655Z,0
2018-01-24T07:49:33.141Z,0
2018-01-24T07:50:38.606Z,0
2018-01-24T07:51:44.187Z,0
2018-01-24T07:52:49.381Z,0
2018-01-24T07:53:54.822Z,0
2018-01-24T07:54:59.960Z,0
2018-01-24T07:56:04.848Z,0
2018-01-24T07:57:10.310Z,0
2018-01-24T07:58:16.020Z,0
2018-01-24T07:59:21.192Z,6
2018-01-24T08:00:27.066Z,0
2018-01-24T08:01:31.966Z,0
2018-01-24T08:02:37.415Z,6
2018-01-24T08:03:42.687Z,6
2018-01-24T08:04:48.176Z,0
2018-01-24T08:05:53.074Z,0
2018-01-24T08:06:58.292Z,0
2018-01-24T08:08:03.192Z,0
2018-01-24T08:09:08.688Z,181
2018-01-24T08:10:14.133Z,0
2018-01-24T08:11:19.338Z,0
2018-01-24T08:13:44.953Z,0
2018-01-24T08:14:50.420Z,0
2018-01-24T08:15:56.250Z,0
2018-01-24T08:17:01.425Z,0
2018-01-24T08:18:06.352Z,0
2018-01-24T08:19:12.121Z,0
2018-01-24T08:20:17.519Z,0
2018-01-24T08:21:22.686Z,0
2018-01-24T08:22:27.831Z,0
2018-01-24T08:23:33.023Z,0
2018-01-24T08:24:38.756Z,0
2018-01-24T08:25:44.228Z,0
2018-01-24T08:26:49.712Z,0
2018-01-24T08:27:55.022Z,0
2018-01-24T08:29:00.477Z,0
2018-01-24T08:30:05.698Z,0
2018-01-24T08:31:10.607Z,0
2018-01-24T08:32:15.796Z,0
2018-01-24T08:33:21.314Z,6
2018-01-24T08:34:27.147Z,6
2018-01-24T08:35:32.943Z,6
2018-01-24T08:36:38.313Z,6
2018-01-24T08:37:43.823Z,6
2018-01-24T08:38:48.981Z,6
2018-01-24T08:39:53.686Z,6
2018-01-24T08:40:58.876Z,6
2018-01-24T08:42:04.062Z,6
2018-01-24T08:43:09.773Z,6
2018-01-24T08:44:14.989Z,6
2018-01-24T08:45:20.161Z,6
2018-01-24T08:46:25.985Z,6
2018-01-24T08:47:31.447Z,6
2018-01-24T08:48:37.219Z,6
2018-01-24T08:49:42.724Z,0
2018-01-24T08:50:48.085Z,0
2018-01-24T08:51:53.877Z,6
2018-01-24T08:52:58.783Z,6
2018-01-24T08:54:03.700Z,6
2018-01-24T08:55:09.546Z,6
2018-01-24T08:56:15.001Z,6
2018-01-24T08:57:20.167Z,6
2018-01-24T08:58:25.733Z,6
2018-01-24T08:59:30.788Z,6
2018-01-24T09:00:36.506Z,6
2018-01-24T09:01:41.711Z,6
2018-01-24T09:02:47.163Z,6
2018-01-24T09:03:52.367Z,6
2018-01-24T09:04:57.582Z,6
2018-01-24T09:06:03.040Z,6
2018-01-24T09:07:08.391Z,6
2018-01-24T09:08:13.878Z,6
2018-01-24T09:09:19.040Z,6
2018-01-24T09:10:24.577Z,6
2018-01-24T09:11:30.067Z,6
2018-01-24T09:12:35.793Z,6
2018-01-24T09:13:41.013Z,6
2018-01-24T09:14:46.193Z,6
2018-01-24T09:15:51.621Z,6
2018-01-24T09:16:57.093Z,6
2018-01-24T09:18:01.700Z,0
2018-01-24T09:19:06.661Z,0
2018-01-24T09:20:12.137Z,0
2018-01-24T09:21:17.534Z,0
2018-01-24T09:22:22.953Z,0
2018-01-24T09:23:27.849Z,0
2018-01-24T09:24:33.242Z,0
2018-01-24T09:25:38.427Z,0
2018-01-24T09:26:43.613Z,0
2018-01-24T09:27:49.391Z,0
2018-01-24T09:28:54.555Z,197
2018-01-24T09:30:00.027Z,197
2018-01-24T09:31:05.559Z,181
2018-01-24T09:32:10.483Z,197
2018-01-24T09:33:15.677Z,197
2018-01-24T09:34:21.145Z,197
2018-01-24T09:35:26.675Z,197
2018-01-24T09:36:32.166Z,197
2018-01-24T09:37:37.639Z,197
2018-01-24T09:38:43.120Z,197
2018-01-24T09:39:48.598Z,197
2018-01-24T09:40:54.074Z,197
2018-01-24T09:41:59.699Z,197
2018-01-24T09:43:05.189Z,197
2018-01-24T09:44:10.109Z,212
2018-01-24T09:45:15.577Z,197
2018-01-24T09:46:21.189Z,212
2018-01-24T09:47:26.394Z,207
2018-01-24T09:48:32.549Z,191
2018-01-24T09:49:38.045Z,191
2018-01-24T09:50:43.218Z,191
2018-01-24T09:51:48.659Z,191
2018-01-24T09:52:53.847Z,212
2018-01-24T09:53:59.040Z,212
2018-01-24T09:55:04.486Z,197
2018-01-24T09:56:09.650Z,191
2018-01-24T09:57:15.152Z,197
2018-01-24T09:58:20.632Z,207
2018-01-24T09:59:26.038Z,197
2018-01-24T10:00:31.502Z,197
2018-01-24T10:01:36.684Z,191
2018-01-24T10:02:41.295Z,207
2018-01-24T10:03:47.083Z,207
2018-01-24T10:04:52.531Z,207
2018-01-24T10:05:58.098Z,207
2018-01-24T10:07:02.996Z,207
2018-01-24T10:08:08.674Z,207
2018-01-24T10:09:14.060Z,207
2018-01-24T10:10:19.608Z,222
2018-01-24T10:11:25.080Z,222
2018-01-24T10:12:30.641Z,237
2018-01-24T10:13:36.109Z,222
2018-01-24T10:14:41.602Z,222
2018-01-24T10:15:47.364Z,237
2018-01-24T10:16:52.838Z,237
2018-01-24T10:17:57.753Z,222
2018-01-24T10:19:02.286Z,222
2018-01-24T10:20:07.481Z,207
2018-01-24T10:21:12.946Z,222
2018-01-24T10:22:18.489Z,237
2018-01-24T10:23:23.690Z,237
2018-01-24T10:24:29.171Z,222
2018-01-24T10:25:34.109Z,222
2018-01-24T10:26:39.324Z,222
2018-01-24T10:27:45.253Z,237
2018-01-24T10:28:50.743Z,237
2018-01-24T10:29:56.201Z,222
2018-01-24T10:31:01.478Z,237
2018-01-24T10:32:06.121Z,222
2018-01-24T10:33:11.327Z,222
2018-01-24T10:34:16.762Z,222
2018-01-24T10:35:21.652Z,222
2018-01-24T10:36:27.307Z,222
2018-01-24T10:37:33.003Z,222
2018-01-24T10:38:38.470Z,237
2018-01-24T10:39:43.997Z,222
2018-01-24T10:40:49.160Z,222
2018-01-24T10:41:54.372Z,222
2018-01-24T10:43:00.272Z,222
2018-01-24T10:44:05.171Z,222
2018-01-24T10:45:10.556Z,207
2018-01-24T10:46:16.307Z,207
2018-01-24T10:47:21.766Z,207
2018-01-24T10:48:27.693Z,222
2018-01-24T10:49:32.866Z,222
2018-01-24T10:50:38.332Z,222
2018-01-24T10:51:43.920Z,207
2018-01-24T10:52:49.404Z,207
2018-01-24T10:53:54.331Z,222
2018-01-24T10:54:59.768Z,207
2018-01-24T10:56:04.972Z,222
2018-01-24T10:57:10.389Z,222
2018-01-24T10:58:16.121Z,222
2018-01-24T10:59:21.022Z,237
2018-01-24T11:00:41.139Z,247
2018-01-24T11:01:46.034Z,247
2018-01-24T11:02:51.225Z,241
2018-01-24T11:03:57.061Z,257
2018-01-24T11:05:02.515Z,272
2018-01-24T11:06:07.448Z,257
2018-01-24T11:07:12.651Z,257
2018-01-24T11:08:18.161Z,241
2018-01-24T11:09:23.381Z,272
2018-01-24T11:10:43.760Z,272
2018-01-24T11:11:48.957Z,272
2018-01-24T11:12:54.577Z,272
2018-01-24T11:13:59.805Z,272
2018-01-24T11:15:04.999Z,272
2018-01-24T11:16:10.801Z,287
2018-01-24T11:17:16.288Z,272
2018-01-24T11:18:21.169Z,272
2018-01-24T11:19:26.035Z,272
2018-01-24T11:20:31.477Z,257
2018-01-24T11:21:36.637Z,241
2018-01-24T11:22:42.091Z,241
2018-01-24T11:23:47.286Z,257
2018-01-24T11:24:53.012Z,266
2018-01-24T11:25:58.678Z,266
2018-01-24T11:27:03.574Z,266
2018-01-24T11:28:09.138Z,282
2018-01-24T11:29:14.592Z,282
2018-01-24T11:30:20.066Z,297
2018-01-24T11:31:24.852Z,297
2018-01-24T11:32:30.321Z,282
2018-01-24T11:33:35.774Z,282
2018-01-24T11:34:41.232Z,282
2018-01-24T11:35:46.434Z,257
2018-01-24T11:36:52.197Z,282
2018-01-24T11:37:57.866Z,241
2018-01-24T11:39:03.351Z,272
2018-01-24T11:40:08.783Z,262
2018-01-24T11:41:14.183Z,216
2018-01-24T11:42:19.402Z,216
2018-01-24T11:43:24.848Z,237
2018-01-24T11:44:30.016Z,216
2018-01-24T11:45:35.973Z,232
2018-01-24T11:46:41.476Z,247
2018-01-24T11:47:46.976Z,247
2018-01-24T11:48:52.182Z,247
2018-01-24T11:49:57.828Z,262
2018-01-24T11:51:03.497Z,247
2018-01-24T11:52:09.215Z,241
2018-01-24T11:53:14.622Z,241
2018-01-24T11:54:19.802Z,282
2018-01-24T11:55:25.242Z,282
2018-01-24T11:56:30.723Z,282
2018-01-24T11:57:36.095Z,282
2018-01-24T11:58:41.558Z,282
2018-01-24T11:59:47.036Z,282
2018-01-24T12:00:52.566Z,282
2018-01-24T12:01:57.735Z,282
2018-01-24T12:03:03.068Z,282
2018-01-24T12:04:08.047Z,282
2018-01-24T12:05:13.434Z,282
2018-01-24T12:06:18.604Z,282
2018-01-24T12:07:24.543Z,282
2018-01-24T12:08:29.176Z,282
2018-01-24T12:09:35.005Z,266
2018-01-24T12:10:40.887Z,282
2018-01-24T12:11:46.199Z,282
2018-01-24T12:12:51.913Z,282
2018-01-24T12:13:57.410Z,297
2018-01-24T12:15:02.263Z,287
2018-01-24T12:16:07.464Z,287
2018-01-24T12:17:12.647Z,282
2018-01-24T12:18:18.100Z,266
2018-01-24T12:19:23.542Z,282
2018-01-24T12:20:28.453Z,297
2018-01-24T12:21:34.400Z,282
2018-01-24T12:22:39.880Z,282
2018-01-24T12:23:45.339Z,282
2018-01-24T12:24:50.785Z,282
2018-01-24T12:25:56.271Z,282
2018-01-24T12:27:01.778Z,282
2018-01-24T12:28:07.209Z,282
2018-01-24T12:29:12.810Z,287
2018-01-24T12:30:18.767Z,282
2018-01-24T12:31:24.243Z,282
2018-01-24T12:32:29.439Z,282
2018-01-24T12:33:35.184Z,287
2018-01-24T12:34:40.350Z,287
2018-01-24T12:35:45.839Z,287
2018-01-24T12:36:51.379Z,272
2018-01-24T12:37:56.878Z,287
2018-01-24T12:39:02.067Z,272
2018-01-24T12:40:07.277Z,272
2018-01-24T12:41:12.218Z,287
2018-01-24T12:42:17.691Z,287
2018-01-24T12:43:23.318Z,272
2018-01-24T12:44:28.783Z,287
2018-01-24T12:45:34.242Z,272
2018-01-24T12:46:39.435Z,272
2018-01-24T12:47:44.671Z,272
2018-01-24T12:48:50.406Z,272
2018-01-24T12:49:55.884Z,257
2018-01-24T12:51:01.099Z,272
2018-01-24T12:52:05.705Z,257
2018-01-24T12:53:10.912Z,272
2018-01-24T12:54:16.409Z,272
2018-01-24T12:55:21.597Z,272
2018-01-24T12:56:26.530Z,272
2018-01-24T12:57:32.313Z,272
2018-01-24T12:58:37.514Z,257
2018-01-24T12:59:42.997Z,272
2018-01-24T13:00:48.597Z,272
2018-01-24T13:01:53.855Z,272
2018-01-24T13:02:59.342Z,257
2018-01-24T13:04:04.789Z,257
2018-01-24T13:05:09.725Z,257
2018-01-24T13:06:15.215Z,257
2018-01-24T13:07:20.935Z,257
2018-01-24T13:08:26.119Z,257
2018-01-24T13:09:31.606Z,272
2018-01-24T13:10:37.078Z,272
2018-01-24T13:11:41.980Z,272
2018-01-24T13:12:47.128Z,257
2018-01-24T13:13:52.304Z,257
2018-01-24T13:14:57.479Z,257
2018-01-24T13:16:03.125Z,257
2018-01-24T13:17:08.243Z,262
2018-01-24T13:18:13.735Z,262
2018-01-24T13:19:19.548Z,262
2018-01-24T13:20:25.089Z,257
2018-01-24T13:21:30.583Z,257
2018-01-24T13:22:35.790Z,262
2018-01-24T13:23:41.018Z,262
2018-01-24T13:24:46.735Z,262
2018-01-24T13:25:52.194Z,257
2018-01-24T13:26:57.650Z,257
2018-01-24T13:28:02.427Z,247
2018-01-24T13:29:07.552Z,262
2018-01-24T13:30:12.460Z,257
2018-01-24T13:31:18.228Z,241
2018-01-24T13:32:23.391Z,247
2018-01-24T13:33:29.076Z,257
2018-01-24T13:34:34.747Z,241
2018-01-24T13:35:40.214Z,257
2018-01-24T13:36:45.698Z,262
2018-01-24T13:37:51.152Z,262
2018-01-24T13:38:56.849Z,262
2018-01-24T13:40:01.981Z,262
2018-01-24T13:41:07.148Z,262
2018-01-24T13:42:12.046Z,262
2018-01-24T13:43:17.818Z,262
2018-01-24T13:44:23.283Z,232
2018-01-24T13:45:28.980Z,247
2018-01-24T13:46:34.480Z,232
2018-01-24T13:47:39.392Z,247
2018-01-24T13:48:45.229Z,247
2018-01-24T13:49:50.693Z,247
2018-01-24T13:50:55.889Z,247
2018-01-24T13:52:00.797Z,247
2018-01-24T13:53:05.996Z,247
2018-01-24T13:54:11.173Z,247
2018-01-24T13:55:16.727Z,247
2018-01-24T13:56:22.200Z,262
2018-01-24T13:57:28.178Z,262
2018-01-24T13:58:33.397Z,262
2018-01-24T13:59:38.590Z,262
2018-01-24T14:00:44.767Z,277
2018-01-24T14:01:50.238Z,262
2018-01-24T14:02:55.744Z,277
2018-01-24T14:04:01.560Z,262
2018-01-24T14:05:06.795Z,247
2018-01-24T14:06:12.007Z,247
2018-01-24T14:07:17.873Z,247
2018-01-24T14:08:23.060Z,247
2018-01-24T14:09:28.217Z,262
2018-01-24T14:10:33.158Z,262
2018-01-24T14:11:38.619Z,262
2018-01-24T14:12:43.742Z,262
2018-01-24T14:13:49.405Z,247
2018-01-24T14:14:54.877Z,262
2018-01-24T14:16:00.061Z,247
2018-01-24T14:17:04.974Z,247
2018-01-24T14:18:10.165Z,247
2018-01-24T14:19:15.888Z,247
2018-01-24T14:20:21.083Z,247
2018-01-24T14:21:27.279Z,247
2018-01-24T14:22:32.780Z,247
2018-01-24T14:23:37.672Z,247
2018-01-24T14:24:43.668Z,232
2018-01-24T14:25:49.117Z,247
2018-01-24T14:26:54.771Z,232
2018-01-24T14:27:59.675Z,232
2018-01-24T14:29:04.878Z,232
2018-01-24T14:30:10.050Z,232
2018-01-24T14:31:15.677Z,232
2018-01-24T14:32:21.119Z,232
2018-01-24T14:33:27.432Z,232
2018-01-24T14:34:32.837Z,252
2018-01-24T14:35:38.310Z,252
2018-01-24T14:36:43.741Z,237
2018-01-24T14:37:49.205Z,252
2018-01-24T14:38:54.393Z,252
2018-01-24T14:39:59.894Z,252
2018-01-24T14:41:04.485Z,237
2018-01-24T14:42:09.693Z,237
2018-01-24T14:43:15.685Z,237
2018-01-24T14:44:20.868Z,237
2018-01-24T14:45:26.931Z,237
2018-01-24T14:46:32.129Z,237
2018-01-24T14:47:37.608Z,237
2018-01-24T14:48:43.339Z,222
2018-01-24T14:49:49.436Z,222
2018-01-24T14:50:54.938Z,222
2018-01-24T14:52:00.651Z,222
2018-01-24T14:53:05.841Z,191
2018-01-24T14:54:11.038Z,222
2018-01-24T14:55:16.396Z,222
2018-01-24T14:56:21.570Z,222
2018-01-24T14:57:27.195Z,222
2018-01-24T14:58:32.422Z,222
2018-01-24T14:59:37.602Z,222
2018-01-24T15:00:42.763Z,207
2018-01-24T15:01:47.937Z,222
2018-01-24T15:02:52.826Z,207
2018-01-24T15:03:58.298Z,222
2018-01-24T15:05:02.934Z,222
2018-01-24T15:06:08.121Z,207
2018-01-24T15:07:13.602Z,207
2018-01-24T15:08:19.077Z,207
2018-01-24T15:10:44.059Z,207
2018-01-24T15:11:49.592Z,207
2018-01-24T15:12:55.445Z,207
2018-01-24T15:14:00.869Z,227
2018-01-24T15:15:05.790Z,227
2018-01-24T15:16:10.986Z,227
2018-01-24T15:17:15.897Z,227
2018-01-24T15:18:21.121Z,222
2018-01-24T15:19:26.571Z,227
2018-01-24T15:20:31.740Z,227
2018-01-24T15:21:37.230Z,212
2018-01-24T15:22:42.407Z,227
2018-01-24T15:23:47.878Z,227
2018-01-24T15:24:53.706Z,227
2018-01-24T15:25:58.919Z,227
2018-01-24T15:27:04.123Z,212
2018-01-24T15:28:09.797Z,212
2018-01-24T15:29:15.052Z,227
2018-01-24T15:30:20.526Z,212
2018-01-24T15:31:40.981Z,227
2018-01-24T15:32:46.209Z,212
2018-01-24T15:33:51.664Z,212
2018-01-24T15:34:56.833Z,212
2018-01-24T15:36:02.056Z,212
2018-01-24T15:37:07.288Z,227
2018-01-24T15:38:12.489Z,212
2018-01-24T15:39:17.968Z,227
2018-01-24T15:40:23.908Z,212
2018-01-24T15:41:28.814Z,212
2018-01-24T15:42:34.281Z,212
2018-01-24T15:43:39.172Z,212